Republic, WA

2:51 AM PDT on August 29, 2014 (GMT -0700)
MAP RADIO HILL (P021) WA PSD | Change Station
CLOSE
Current Station
Personal Weather Station
Location: Republic, WA
Elevation: 3815 ft
Nearby Weather Stations

Elev 3815 ft 48.67 °N, 118.73 °W | Updated 51 minutes ago

Clear
Clear
58 °F
Feels Like 58 °F
N
2
Wind Variable Wind from ESE
Gusts 0.0 mph

Today
High -- | Low -- °F
--% Chance of Precip.
Yesterday
High -- | Low -- °F
Precip. -- in
6:07 AM 7:42 PM
Waxing Crescent, 13% visible
Pressure 29.92 in
Visibility 10.0 miles
Clouds Clear
Dew Point 45 °F
Humidity 63%
Rainfall -999.00 in
Snow Depth Not available.
UV 0 out of 12
Pollen 7.70 out of 12
Air Quality Not available.
Flu Activity Not available.
METAR KDEW 290853Z AUTO 06003KT 10SM CLR 12/06 A2995 RMK AO2 SLP131 T01220056 53002

More Conditions Fewer Conditions

Pressure 29.92 in
Visibility 10.0 miles
Clouds Clear
Dew Point 45 °F
Humidity 63%
Rainfall -999.00 in
Snow Depth Not available.
UV 0 out of 12
Pollen 7.70 out of 12
Air Quality Not available.
Flu Activity Not available.
METAR KDEW 290853Z AUTO 06003KT 10SM CLR 12/06 A2995 RMK AO2 SLP131 T01220056 53002

More Conditions Fewer Conditions

10-Day Weather Forecast

Almanac

Astronomy

Aug. 29, 2014 Rise Set
Actual Time 6:07 AM PDT 7:42 PM PDT
Civil Twilight 5:34 AM PDT 8:15 PM PDT
Nautical Twilight 4:54 AM PDT 8:55 PM PDT
Astronomical Twilight 4:10 AM PDT 9:39 PM PDT
Moon 10:24 AM PDT 9:18 PM PDT
Length of Visible Light 14h 40m
Length of Day
13h 34m
Tomorrow will be 3m 26s shorter.
Waxing Crescent, 13% of the Moon is Illuminated
Today
Waxing Crescent
Sep 2
First Quarter
Sep 8
Full
Sep 15
Last Quarter
Sep 24
New

Today's Extremes

State Highs State Lows

Community

WunderPhotos

Upload Photos

1,748,207 photos uploaded!

Nearby

Snow Depth

Station Depth Elevation
Sentinel Butte 0 in 4920 ft
Moses Mountain 1 in 5300 ft
Bunchgrass Meadow 0 in 5000 ft
Harts Pass 0 in 6500 ft
Quartz Peak 1 in 4700 ft

Earthquake Activity

City Distance Mag. Time & Date
No recent earthquake activity has been reported nearby.
Minimum magnitude displayed is 2.5.

Coastal Water Temperatures

Place Temperature
No Stations Reporting

Nearby Weather Stations